createdAt,value
2022-12-16T00:01:30.555Z,46.97
2022-12-16T00:04:01.236Z,45.60
2022-12-16T00:06:32.294Z,52.53
2022-12-16T00:09:00.946Z,46.20
2022-12-16T00:11:32.085Z,45.63
2022-12-16T00:14:00.457Z,44.77
2022-12-16T00:16:28.866Z,49.63
2022-12-16T00:18:57.288Z,49.70
2022-12-16T00:21:29.692Z,49.10
2022-12-16T00:23:58.273Z,49.70
2022-12-16T00:26:26.912Z,48.00
2022-12-16T00:28:55.283Z,55.13
2022-12-16T00:31:23.713Z,51.80
2022-12-16T00:33:53.018Z,48.00
2022-12-16T00:36:21.361Z,46.23
2022-12-16T00:38:51.950Z,47.80
2022-12-16T00:41:20.352Z,48.53
2022-12-16T00:43:48.732Z,51.77
2022-12-16T00:46:17.463Z,54.17
2022-12-16T00:48:45.945Z,49.67
2022-12-16T00:51:14.559Z,49.73
2022-12-16T00:53:43.260Z,49.70
2022-12-16T00:56:15.244Z,47.60
2022-12-16T00:58:43.572Z,49.17
2022-12-16T01:01:12.413Z,47.77
2022-12-16T01:03:41.364Z,49.87
2022-12-16T01:06:10.700Z,51.73
2022-12-16T01:08:39.082Z,46.57
2022-12-16T01:11:07.651Z,48.80
2022-12-16T01:13:37.367Z,49.43
2022-12-16T01:16:06.107Z,45.07
2022-12-16T01:18:34.589Z,46.00
2022-12-16T01:21:04.232Z,49.67
2022-12-16T01:23:33.758Z,48.10
2022-12-16T01:26:02.859Z,51.50
2022-12-16T01:28:31.399Z,47.57
2022-12-16T01:31:02.784Z,46.50
2022-12-16T01:33:31.973Z,48.33
2022-12-16T01:36:01.420Z,49.37
2022-12-16T01:38:29.887Z,46.87
2022-12-16T01:40:58.622Z,47.33
2022-12-16T01:43:29.138Z,53.10
2022-12-16T01:46:00.772Z,49.20
2022-12-16T01:48:37.528Z,49.83
2022-12-16T01:51:08.755Z,45.90
2022-12-16T01:53:37.572Z,51.30
2022-12-16T01:56:06.116Z,47.17
2022-12-16T01:58:36.715Z,47.00
2022-12-16T02:01:05.151Z,49.17
2022-12-16T02:03:37.434Z,45.23
2022-12-16T02:06:07.374Z,46.67
2022-12-16T02:08:36.133Z,51.47
2022-12-16T02:11:20.010Z,51.87
2022-12-16T02:13:54.013Z,46.50
2022-12-16T02:16:24.039Z,42.93
2022-12-16T02:18:57.061Z,53.87
2022-12-16T02:21:31.005Z,43.27
2022-12-16T02:24:16.073Z,48.97
2022-12-16T02:27:03.143Z,42.40
2022-12-16T02:29:38.821Z,51.17
2022-12-16T02:32:14.971Z,50.93
2022-12-16T02:34:47.890Z,42.00
2022-12-16T02:37:20.228Z,52.23
2022-12-16T02:39:51.304Z,41.83
2022-12-16T02:42:23.502Z,41.50
2022-12-16T02:44:57.595Z,42.87
2022-12-16T02:47:27.407Z,40.30
2022-12-16T02:49:56.388Z,46.90
2022-12-16T02:52:26.126Z,45.80
2022-12-16T02:54:56.160Z,46.33
2022-12-16T02:57:33.852Z,43.43
2022-12-16T03:00:04.062Z,43.73
2022-12-16T03:02:38.537Z,45.03
2022-12-16T03:05:08.779Z,43.37
2022-12-16T03:07:38.229Z,46.77
2022-12-16T03:10:08.098Z,43.20
2022-12-16T03:12:36.981Z,42.87
2022-12-16T03:15:07.761Z,45.77
2022-12-16T03:17:38.986Z,51.43
2022-12-16T03:20:09.312Z,45.37
2022-12-16T03:22:39.383Z,42.10
2022-12-16T03:25:08.683Z,46.17
2022-12-16T03:27:41.408Z,47.90
2022-12-16T03:30:12.430Z,50.67
2022-12-16T03:32:43.862Z,43.20
2022-12-16T03:35:14.788Z,47.40
2022-12-16T03:37:44.611Z,40.23
2022-12-16T03:40:14.078Z,48.23
2022-12-16T03:42:43.856Z,43.80
2022-12-16T03:45:14.739Z,42.10
2022-12-16T03:47:44.601Z,48.93
2022-12-16T03:50:13.195Z,48.07
2022-12-16T03:52:41.571Z,42.43
2022-12-16T03:55:10.347Z,50.30
2022-12-16T03:57:38.718Z,43.03
2022-12-16T04:00:07.649Z,50.33
2022-12-16T04:02:36.121Z,46.37
2022-12-16T04:05:06.151Z,46.13
2022-12-16T04:07:34.637Z,52.77
2022-12-16T04:10:03.029Z,50.00
2022-12-16T04:12:49.108Z,45.07
2022-12-16T04:15:34.954Z,45.03
2022-12-16T04:18:21.389Z,43.60
2022-12-16T04:21:10.887Z,45.53
2022-12-16T04:24:01.612Z,42.93
2022-12-16T04:26:29.964Z,52.00
2022-12-16T04:28:58.291Z,51.17
2022-12-16T04:31:26.711Z,49.00
2022-12-16T04:34:12.861Z,52.97
2022-12-16T04:37:00.642Z,47.37
2022-12-16T04:39:46.544Z,45.47
2022-12-16T04:42:32.770Z,48.27
2022-12-16T04:45:19.030Z,52.87
2022-12-16T04:48:05.092Z,47.13
2022-12-16T04:50:51.119Z,45.40
2022-12-16T04:53:38.617Z,43.70
2022-12-16T04:56:24.960Z,48.60
2022-12-16T04:59:11.235Z,50.27
2022-12-16T05:01:57.454Z,47.83
2022-12-16T05:04:43.271Z,47.17
2022-12-16T05:07:32.009Z,49.57
2022-12-16T05:10:22.320Z,48.47
2022-12-16T05:13:08.283Z,53.07
2022-12-16T05:15:54.330Z,46.87
2022-12-16T05:18:40.304Z,46.50
2022-12-16T05:21:28.656Z,43.93
2022-12-16T05:24:14.650Z,47.17
2022-12-16T05:27:02.020Z,46.70
2022-12-16T05:29:47.992Z,44.70
2022-12-16T05:32:34.096Z,51.70
2022-12-16T05:35:20.371Z,44.80
2022-12-16T05:38:06.447Z,47.50
2022-12-16T05:40:52.341Z,48.73
2022-12-16T05:43:39.616Z,52.13
2022-12-16T05:46:25.769Z,53.07
2022-12-16T05:49:11.659Z,43.20
2022-12-16T05:51:57.767Z,42.50
2022-12-16T05:54:43.806Z,43.30
2022-12-16T05:57:29.933Z,52.60
2022-12-16T06:00:17.447Z,46.77
2022-12-16T06:03:03.562Z,49.63
2022-12-16T06:05:49.574Z,46.97
2022-12-16T06:08:35.746Z,52.17
2022-12-16T06:11:21.566Z,46.77
2022-12-16T06:14:07.792Z,45.73
2022-12-16T06:16:54.916Z,53.37
2022-12-16T06:19:40.664Z,47.20
2022-12-16T06:22:26.824Z,47.37
2022-12-16T06:25:12.684Z,54.83
2022-12-16T06:27:58.822Z,49.27
2022-12-16T06:30:45.875Z,44.37
2022-12-16T06:33:44.598Z,45.23
2022-12-16T06:36:30.648Z,53.03
2022-12-16T06:39:16.705Z,46.17
2022-12-16T06:42:02.709Z,47.90
2022-12-16T06:44:48.764Z,53.07
2022-12-16T06:47:34.722Z,52.60
2022-12-16T06:50:22.300Z,45.97
2022-12-16T06:53:08.419Z,50.97
2022-12-16T06:55:50.767Z,47.13
2022-12-16T06:58:36.744Z,48.30
2022-12-16T07:01:22.976Z,48.33
2022-12-16T07:04:12.125Z,49.83
2022-12-16T07:06:59.531Z,46.70
2022-12-16T07:09:45.559Z,51.53
2022-12-16T07:12:31.740Z,50.83
2022-12-16T07:15:17.864Z,48.37
2022-12-16T07:18:04.519Z,45.60
2022-12-16T07:20:50.480Z,48.43
2022-12-16T07:23:38.254Z,54.80
2022-12-16T07:26:24.192Z,50.87
2022-12-16T07:29:10.479Z,47.60
2022-12-16T07:31:56.605Z,50.00
2022-12-16T07:34:47.123Z,48.70
2022-12-16T07:37:35.233Z,50.73
2022-12-16T07:40:22.756Z,48.83
2022-12-16T07:43:08.967Z,47.17
2022-12-16T07:45:55.116Z,49.17
2022-12-16T07:48:41.157Z,43.10
2022-12-16T07:51:27.136Z,54.17
2022-12-16T07:54:13.268Z,48.23
2022-12-16T07:57:00.655Z,51.30
2022-12-16T07:59:46.540Z,46.60
2022-12-16T08:02:32.552Z,50.33
2022-12-16T08:05:18.030Z,50.23
2022-12-16T08:08:04.068Z,48.07
2022-12-16T08:10:46.297Z,46.13
2022-12-16T08:13:33.831Z,51.63
2022-12-16T08:16:20.239Z,51.43
2022-12-16T08:19:10.689Z,48.27
2022-12-16T08:21:57.197Z,46.80
2022-12-16T08:24:46.984Z,45.87
2022-12-16T08:27:37.236Z,53.80
2022-12-16T08:30:25.651Z,47.07
2022-12-16T08:33:18.970Z,44.37
2022-12-16T08:36:05.598Z,51.70
2022-12-16T08:38:51.606Z,44.77
2022-12-16T08:41:37.621Z,44.90
2022-12-16T08:44:24.307Z,44.57
2022-12-16T08:47:11.496Z,48.50
2022-12-16T08:49:59.929Z,49.87
2022-12-16T08:52:48.682Z,46.27
2022-12-16T08:55:34.667Z,42.77
2022-12-16T08:58:20.494Z,50.40
2022-12-16T09:01:07.849Z,50.33
2022-12-16T09:03:55.535Z,50.40
2022-12-16T09:06:41.683Z,47.43
2022-12-16T09:09:27.728Z,51.50
2022-12-16T09:12:13.791Z,49.90
2022-12-16T09:14:59.998Z,54.87
2022-12-16T09:17:46.284Z,53.30
2022-12-16T09:20:33.813Z,54.07
2022-12-16T09:23:21.404Z,56.37
2022-12-16T09:26:07.818Z,56.40
2022-12-16T09:28:55.622Z,51.67
2022-12-16T09:31:41.556Z,51.07
2022-12-16T09:34:27.602Z,50.03
2022-12-16T09:37:14.812Z,56.17
2022-12-16T09:40:00.875Z,52.07
2022-12-16T09:42:49.903Z,52.40
2022-12-16T09:45:38.950Z,56.43
2022-12-16T09:48:28.121Z,48.50
2022-12-16T09:51:15.606Z,58.97
2022-12-16T09:54:03.871Z,50.70
2022-12-16T09:56:58.937Z,55.97
2022-12-16T09:59:46.694Z,55.47
2022-12-16T10:02:34.858Z,55.27
2022-12-16T10:05:21.209Z,52.10
2022-12-16T10:08:11.990Z,58.10
2022-12-16T10:11:08.528Z,53.17
2022-12-16T10:13:58.590Z,57.50
2022-12-16T10:16:48.711Z,52.20
2022-12-16T10:19:43.696Z,45.30
2022-12-16T10:22:33.773Z,56.00
2022-12-16T10:25:25.186Z,56.27
2022-12-16T10:28:27.749Z,57.93
2022-12-16T10:31:13.708Z,53.03
2022-12-16T10:34:00.842Z,61.57
2022-12-16T10:36:46.727Z,61.10
2022-12-16T10:39:38.956Z,63.53
2022-12-16T10:42:26.610Z,66.13
2022-12-16T10:45:14.914Z,57.10
2022-12-16T10:48:01.155Z,61.80
2022-12-16T10:50:47.294Z,66.17
2022-12-16T10:53:34.278Z,68.87
2022-12-16T10:56:31.328Z,72.97
2022-12-16T10:59:18.900Z,69.80
2022-12-16T11:02:15.186Z,68.30
2022-12-16T11:05:01.779Z,71.93
2022-12-16T11:07:51.158Z,67.03
2022-12-16T11:10:43.833Z,66.90
2022-12-16T11:13:36.504Z,70.97
2022-12-16T11:16:26.727Z,65.57
2022-12-16T11:19:14.196Z,66.93
2022-12-16T11:22:00.346Z,62.93
2022-12-16T11:24:46.897Z,71.03
2022-12-16T11:27:34.463Z,66.10
2022-12-16T11:30:21.368Z,69.53
2022-12-16T11:33:08.470Z,64.27
2022-12-16T11:35:57.275Z,66.80
2022-12-16T11:38:45.523Z,73.63
2022-12-16T11:41:38.613Z,72.80
2022-12-16T11:44:29.882Z,59.90
2022-12-16T11:47:15.931Z,65.60
2022-12-16T11:50:02.066Z,68.10
2022-12-16T11:52:49.259Z,70.47
2022-12-16T11:58:47.255Z,66.77
2022-12-16T12:01:41.496Z,69.80
2022-12-16T12:04:29.234Z,75.60
2022-12-16T12:07:23.148Z,64.33
2022-12-16T12:10:12.931Z,77.27
2022-12-16T12:13:02.595Z,75.03
2022-12-16T12:15:53.386Z,82.83
2022-12-16T12:18:44.071Z,82.50
2022-12-16T12:21:32.779Z,87.27
2022-12-16T12:24:20.767Z,93.90
2022-12-16T12:27:10.344Z,84.50
2022-12-16T12:30:03.988Z,88.57
2022-12-16T12:32:52.924Z,87.67
2022-12-16T12:35:50.026Z,95.57
2022-12-16T12:38:38.288Z,89.43
2022-12-16T12:41:26.202Z,92.47
2022-12-16T12:44:13.334Z,91.83
2022-12-16T12:47:04.134Z,96.83
2022-12-16T12:49:55.306Z,101.67
2022-12-16T12:52:51.563Z,92.30
2022-12-16T12:55:43.320Z,100.53
2022-12-16T12:58:29.803Z,100.37
2022-12-16T13:01:18.002Z,95.57
2022-12-16T13:04:06.551Z,103.63
2022-12-16T13:06:54.282Z,103.33
2022-12-16T13:09:42.841Z,97.47
2022-12-16T13:12:51.186Z,106.63
2022-12-16T13:15:39.473Z,101.83
2022-12-16T13:18:38.770Z,104.47
2022-12-16T13:21:44.139Z,96.17
2022-12-16T13:24:39.741Z,97.80
2022-12-16T13:27:31.805Z,96.83
2022-12-16T13:30:22.336Z,109.00
2022-12-16T13:33:13.701Z,108.57
2022-12-16T13:36:12.786Z,111.60
2022-12-16T13:39:04.711Z,108.70
2022-12-16T13:42:10.508Z,105.97
2022-12-16T13:45:16.067Z,104.97
2022-12-16T13:48:21.576Z,123.70
2022-12-16T13:51:09.075Z,112.10
2022-12-16T13:54:00.543Z,112.60
2022-12-16T13:56:49.880Z,124.27
2022-12-16T13:59:37.503Z,129.00
2022-12-16T14:02:33.473Z,130.57
2022-12-16T14:05:19.692Z,133.03
2022-12-16T14:08:05.786Z,130.80
2022-12-16T14:10:54.718Z,146.23
2022-12-16T14:13:42.177Z,150.27
2022-12-16T14:16:32.350Z,171.47
2022-12-16T14:19:24.631Z,151.43
2022-12-16T14:22:11.835Z,157.23
2022-12-16T14:24:58.267Z,156.03
2022-12-16T14:27:45.498Z,156.10
2022-12-16T14:30:35.494Z,163.43
2022-12-16T14:33:35.130Z,149.07
2022-12-16T14:36:21.203Z,143.33
2022-12-16T14:39:07.735Z,140.30
2022-12-16T14:41:53.745Z,142.70
2022-12-16T14:44:41.959Z,144.83
2022-12-16T14:47:35.161Z,149.87
2022-12-16T14:50:21.076Z,145.63
2022-12-16T14:53:07.161Z,148.07
2022-12-16T14:55:54.057Z,171.90
2022-12-16T14:58:40.950Z,156.97
2022-12-16T15:01:32.440Z,173.10
2022-12-16T15:04:19.531Z,156.87
2022-12-16T15:07:07.185Z,153.00
2022-12-16T15:09:55.889Z,172.17
2022-12-16T15:12:43.259Z,160.63
2022-12-16T15:15:32.681Z,154.87
2022-12-16T15:18:20.663Z,168.53
2022-12-16T15:21:08.829Z,145.87
2022-12-16T15:23:58.079Z,158.47
2022-12-16T15:26:45.204Z,144.10
2022-12-16T15:29:47.775Z,167.63
2022-12-16T15:32:47.830Z,145.10
2022-12-16T15:35:44.588Z,139.70
2022-12-16T15:38:31.503Z,103.03
2022-12-16T15:41:32.384Z,127.47
2022-12-16T15:44:18.076Z,107.33
2022-12-16T15:47:07.006Z,131.43
2022-12-16T15:49:55.898Z,148.67
2022-12-16T15:52:53.266Z,144.57
2022-12-16T15:55:43.799Z,146.07
2022-12-16T15:58:34.144Z,143.17
2022-12-16T16:01:20.877Z,123.93
2022-12-16T16:04:11.366Z,130.90
2022-12-16T16:06:57.781Z,128.73
2022-12-16T16:09:45.673Z,138.00
2022-12-16T16:12:32.831Z,149.90
2022-12-16T16:15:18.555Z,140.63
2022-12-16T16:18:05.021Z,135.60
2022-12-16T16:20:51.343Z,147.33
2022-12-16T16:23:52.042Z,132.80
2022-12-16T16:26:40.167Z,132.37
2022-12-16T16:29:26.558Z,140.03
2022-12-16T16:32:12.310Z,136.93
2022-12-16T16:34:58.207Z,140.90
2022-12-16T16:37:44.407Z,145.93
2022-12-16T16:40:35.323Z,142.10
2022-12-16T16:43:23.059Z,139.43
2022-12-16T16:46:12.389Z,137.80
2022-12-16T16:48:58.761Z,144.17
2022-12-16T16:51:44.623Z,148.87
2022-12-16T16:54:30.649Z,146.27
2022-12-16T16:57:16.692Z,142.77
2022-12-16T17:00:04.334Z,138.13
2022-12-16T17:02:50.363Z,150.00
2022-12-16T17:05:36.764Z,146.37
2022-12-16T17:08:22.714Z,150.23
2022-12-16T17:11:08.850Z,143.27
2022-12-16T17:13:55.001Z,151.07
2022-12-16T17:16:42.302Z,139.47
2022-12-16T17:19:28.287Z,145.00
2022-12-16T17:22:14.373Z,137.33
2022-12-16T17:25:00.560Z,134.60
2022-12-16T17:27:46.790Z,145.07
2022-12-16T17:30:34.835Z,131.80
2022-12-16T17:33:22.535Z,135.50
2022-12-16T17:36:08.810Z,136.97
2022-12-16T17:38:56.616Z,146.53
2022-12-16T17:41:42.518Z,146.80
2022-12-16T17:44:28.835Z,135.07
2022-12-16T17:47:14.979Z,146.50
2022-12-16T17:50:02.221Z,147.83
2022-12-16T17:52:48.325Z,144.80
2022-12-16T17:55:34.324Z,125.73
2022-12-16T17:58:20.192Z,148.80
2022-12-16T18:01:06.460Z,152.40
2022-12-16T18:03:52.720Z,143.77
2022-12-16T18:06:46.040Z,164.00
2022-12-16T18:09:31.765Z,160.30
2022-12-16T18:12:17.864Z,157.10
2022-12-16T18:15:15.473Z,160.57
2022-12-16T18:18:01.611Z,152.47
2022-12-16T18:20:47.660Z,155.67
2022-12-16T18:23:35.009Z,157.07
2022-12-16T18:26:22.412Z,183.00
2022-12-16T18:29:08.370Z,167.07
2022-12-16T18:31:54.561Z,180.73
2022-12-16T18:34:40.911Z,168.40
2022-12-16T18:37:27.114Z,158.93
2022-12-16T18:40:14.384Z,192.73
2022-12-16T18:43:00.270Z,183.50
2022-12-16T18:45:46.185Z,187.97
2022-12-16T18:48:32.128Z,193.37
2022-12-16T18:51:18.591Z,174.83
2022-12-16T18:54:05.019Z,171.17
2022-12-16T18:56:52.409Z,189.40
2022-12-16T18:59:38.337Z,187.43
2022-12-16T19:02:24.511Z,167.83
2022-12-16T19:05:10.638Z,165.97
2022-12-16T19:07:56.513Z,183.40
2022-12-16T19:10:42.419Z,183.83
2022-12-16T19:13:33.243Z,184.07
2022-12-16T19:16:19.325Z,173.73
2022-12-16T19:19:05.562Z,190.83
2022-12-16T19:21:52.125Z,172.20
2022-12-16T19:24:42.027Z,179.57
2022-12-16T19:27:28.136Z,177.17
2022-12-16T19:30:15.364Z,174.30
2022-12-16T19:33:01.660Z,174.70
2022-12-16T19:35:47.716Z,173.27
2022-12-16T19:38:33.837Z,175.17
2022-12-16T19:41:19.943Z,161.93
2022-12-16T19:44:06.703Z,197.50
2022-12-16T19:46:56.205Z,163.33
2022-12-16T19:52:48.495Z,163.20
2022-12-16T19:55:34.559Z,168.77
2022-12-16T19:58:20.661Z,178.83
2022-12-16T20:01:07.289Z,167.53
2022-12-16T20:03:56.463Z,172.77
2022-12-16T20:07:02.479Z,176.00
2022-12-16T20:09:48.457Z,176.90
2022-12-16T20:12:34.613Z,169.30
2022-12-16T20:15:20.707Z,193.27
2022-12-16T20:18:06.981Z,168.40
2022-12-16T20:20:54.693Z,179.37
2022-12-16T20:23:41.597Z,174.83
2022-12-16T20:26:33.948Z,155.00
2022-12-16T20:29:28.120Z,162.03
2022-12-16T20:32:14.155Z,162.50
2022-12-16T20:34:59.537Z,152.33
2022-12-16T20:37:46.675Z,136.53
2022-12-16T20:40:33.912Z,160.80
2022-12-16T20:43:20.276Z,138.33
2022-12-16T20:46:06.451Z,147.60
2022-12-16T20:48:52.543Z,156.03
2022-12-16T20:51:42.892Z,163.77
2022-12-16T20:54:36.499Z,142.87
2022-12-16T20:57:22.496Z,137.23
2022-12-16T21:00:08.526Z,149.33
2022-12-16T21:02:56.040Z,153.33
2022-12-16T21:05:42.317Z,144.20
2022-12-16T21:08:28.489Z,148.13
2022-12-16T21:11:16.762Z,146.63
2022-12-16T21:14:02.654Z,165.87
2022-12-16T21:14:28.519Z,162.00
2022-12-16T21:16:48.515Z,138.53
2022-12-16T21:19:34.666Z,133.17
2022-12-16T21:22:20.693Z,146.80
2022-12-16T21:25:06.706Z,141.97
2022-12-16T21:27:54.025Z,133.13
2022-12-16T21:30:41.654Z,133.97
2022-12-16T21:33:34.135Z,128.03
2022-12-16T21:36:20.107Z,127.63
2022-12-16T21:39:06.228Z,121.93
2022-12-16T21:41:52.027Z,126.90
2022-12-16T21:44:39.043Z,128.97
2022-12-16T21:47:25.142Z,134.33
2022-12-16T21:50:11.306Z,127.17
2022-12-16T21:52:57.413Z,126.93
2022-12-16T21:55:43.389Z,124.13
2022-12-16T21:58:29.874Z,134.83
2022-12-16T22:01:17.914Z,130.03
2022-12-16T22:04:04.260Z,128.23
2022-12-16T22:06:50.345Z,122.37
2022-12-16T22:09:36.279Z,117.37
2022-12-16T22:12:22.128Z,112.53
2022-12-16T22:15:08.208Z,129.93
2022-12-16T22:17:58.628Z,110.27
2022-12-16T22:20:45.386Z,123.73
2022-12-16T22:23:31.370Z,140.97
2022-12-16T22:26:17.737Z,120.53
2022-12-16T22:29:04.087Z,133.80
2022-12-16T22:31:50.209Z,132.70
2022-12-16T22:34:37.800Z,126.17
2022-12-16T22:37:23.743Z,122.20
2022-12-16T22:40:09.523Z,107.40
2022-12-16T22:42:56.260Z,112.70
2022-12-16T22:45:42.530Z,109.50
2022-12-16T22:48:30.862Z,117.13
2022-12-16T22:51:18.553Z,112.87
2022-12-16T22:54:04.672Z,121.60
2022-12-16T22:56:50.821Z,116.50
2022-12-16T22:59:38.018Z,103.00
2022-12-16T23:02:23.379Z,109.83
2022-12-16T23:05:09.274Z,107.20
2022-12-16T23:07:57.319Z,111.90
2022-12-16T23:10:43.371Z,105.33
2022-12-16T23:13:30.023Z,102.03
2022-12-16T23:16:16.278Z,106.63
2022-12-16T23:19:02.141Z,102.03
2022-12-16T23:21:48.160Z,111.70
2022-12-16T23:24:35.687Z,113.93
2022-12-16T23:27:21.701Z,97.80
2022-12-16T23:30:07.877Z,104.17
2022-12-16T23:32:54.047Z,113.60
2022-12-16T23:35:40.205Z,108.07
2022-12-16T23:38:26.689Z,108.90
2022-12-16T23:41:17.141Z,103.10
2022-12-16T23:44:03.364Z,105.37
2022-12-16T23:46:49.542Z,110.90
2022-12-16T23:49:35.749Z,112.07
2022-12-16T23:52:21.682Z,96.30
2022-12-16T23:55:07.748Z,97.73
2022-12-16T23:57:56.182Z,106.70
